createdAt,value
2023-01-11T00:02:11.751Z,7.40
2023-01-11T00:06:16.902Z,8.10
2023-01-11T00:10:22.475Z,7.70
2023-01-11T00:14:28.102Z,6.90
2023-01-11T00:18:33.242Z,8.00
2023-01-11T00:22:38.913Z,8.60
2023-01-11T00:26:44.056Z,8.60
2023-01-11T00:30:50.815Z,6.60
2023-01-11T00:34:56.115Z,7.00
2023-01-11T00:39:01.720Z,6.30
2023-01-11T00:43:24.893Z,7.40
2023-01-11T00:47:48.026Z,6.50
2023-01-11T00:51:53.242Z,6.60
2023-01-11T00:55:58.481Z,6.40
2023-01-11T01:00:04.308Z,5.50
2023-01-11T01:04:11.193Z,5.70
2023-01-11T01:08:16.404Z,6.30
2023-01-11T01:12:35.459Z,6.90
2023-01-11T01:16:42.361Z,4.80
2023-01-11T01:20:50.984Z,5.40
2023-01-11T01:24:56.233Z,5.70
2023-01-11T01:29:01.479Z,6.20
2023-01-11T01:33:06.727Z,5.00
2023-01-11T01:37:12.478Z,5.50
2023-01-11T01:41:17.740Z,6.50
2023-01-11T01:45:25.093Z,5.60
2023-01-11T01:49:30.270Z,5.30
2023-01-11T01:53:37.448Z,5.60
2023-01-11T01:57:44.260Z,5.70
2023-01-11T02:01:50.455Z,5.20
2023-01-11T02:05:55.988Z,5.20
2023-01-11T02:10:04.007Z,5.00
2023-01-11T02:14:12.028Z,5.70
2023-01-11T02:18:19.769Z,5.70
2023-01-11T02:22:42.300Z,5.20
2023-01-11T02:27:01.804Z,6.50
2023-01-11T02:31:12.616Z,5.90
2023-01-11T02:35:21.806Z,5.80
2023-01-11T02:39:31.362Z,6.00
2023-01-11T02:43:59.555Z,6.10
2023-01-11T02:48:05.851Z,5.90
2023-01-11T02:52:13.002Z,6.10
2023-01-11T02:56:19.995Z,5.40
2023-01-11T03:00:25.974Z,5.50
2023-01-11T03:04:31.659Z,6.70
2023-01-11T03:08:46.798Z,6.90
2023-01-11T03:12:59.727Z,7.20
2023-01-11T03:17:08.557Z,7.00
2023-01-11T03:21:19.432Z,7.00
2023-01-11T03:25:26.731Z,6.70
2023-01-11T03:29:33.133Z,6.30
2023-01-11T03:33:39.556Z,7.00
2023-01-11T03:37:45.804Z,6.60
2023-01-11T03:41:53.053Z,7.30
2023-01-11T03:45:59.515Z,6.60
2023-01-11T03:50:06.213Z,7.50
2023-01-11T03:54:14.635Z,7.00
2023-01-11T03:58:19.697Z,6.80
2023-01-11T04:02:26.237Z,7.10
2023-01-11T04:06:32.663Z,6.10
2023-01-11T04:10:37.777Z,6.80
2023-01-11T04:14:42.945Z,7.20
2023-01-11T04:18:48.169Z,7.50
2023-01-11T04:22:53.278Z,7.30
2023-01-11T04:26:58.356Z,7.30
2023-01-11T04:31:03.428Z,7.40
2023-01-11T04:35:09.498Z,6.90
2023-01-11T04:39:16.280Z,5.40
2023-01-11T04:43:21.344Z,6.00
2023-01-11T04:47:26.655Z,5.80
2023-01-11T04:51:31.789Z,6.60
2023-01-11T04:55:37.652Z,6.70
2023-01-11T04:59:42.781Z,6.70
2023-01-11T05:03:47.968Z,7.50
2023-01-11T05:07:53.088Z,7.50
2023-01-11T05:11:58.240Z,7.50
2023-01-11T05:16:03.544Z,6.90
2023-01-11T05:20:10.069Z,7.30
2023-01-11T05:24:18.086Z,6.70
2023-01-11T05:28:23.203Z,6.20
2023-01-11T05:32:28.370Z,7.90
2023-01-11T05:36:33.942Z,7.40
2023-01-11T05:40:40.710Z,6.10
2023-01-11T05:45:05.216Z,6.40
2023-01-11T05:49:10.889Z,7.90
2023-01-11T05:53:16.012Z,8.00
2023-01-11T05:57:21.171Z,9.30
2023-01-11T06:01:26.621Z,7.40
2023-01-11T06:05:31.752Z,5.90
2023-01-11T06:09:36.904Z,6.30
2023-01-11T06:13:42.262Z,6.30
2023-01-11T06:17:47.338Z,6.00
2023-01-11T06:21:52.389Z,5.00
2023-01-11T06:25:57.891Z,5.60
2023-01-11T06:30:03.043Z,5.30
2023-01-11T06:34:08.131Z,5.80
2023-01-11T06:38:16.708Z,5.40
2023-01-11T06:42:21.741Z,5.60
2023-01-11T06:46:28.969Z,5.30
2023-01-11T06:50:34.341Z,5.60
2023-01-11T06:54:39.446Z,5.00
2023-01-11T06:58:46.829Z,4.40
2023-01-11T07:02:52.816Z,5.80
2023-01-11T07:06:58.200Z,6.00
2023-01-11T07:11:03.779Z,5.10
2023-01-11T07:15:10.574Z,5.30
2023-01-11T07:19:15.931Z,4.90
2023-01-11T07:23:21.096Z,4.70
2023-01-11T07:27:26.209Z,4.90
2023-01-11T07:31:31.461Z,5.00
2023-01-11T07:35:36.852Z,4.60
2023-01-11T07:39:43.721Z,5.10
2023-01-11T07:43:49.431Z,5.20
2023-01-11T07:47:54.637Z,5.20
2023-01-11T07:51:59.725Z,5.40
2023-01-11T07:56:05.138Z,5.40
2023-01-11T08:00:11.820Z,6.20
2023-01-11T08:04:16.954Z,5.50
2023-01-11T08:08:22.220Z,5.60
2023-01-11T08:12:44.564Z,4.50
2023-01-11T08:16:49.813Z,4.50
2023-01-11T08:20:55.007Z,4.20
2023-01-11T08:25:00.141Z,4.30
2023-01-11T08:29:05.321Z,3.30
2023-01-11T08:33:11.285Z,4.00
2023-01-11T08:37:16.354Z,6.10
2023-01-11T08:41:21.502Z,4.10
2023-01-11T08:45:26.742Z,4.90
2023-01-11T08:49:31.891Z,5.40
2023-01-11T08:53:37.844Z,4.40
2023-01-11T08:57:42.924Z,4.40
2023-01-11T09:01:48.299Z,4.90
2023-01-11T09:05:54.115Z,5.10
2023-01-11T09:09:59.259Z,4.10
2023-01-11T09:14:04.355Z,4.60
2023-01-11T09:18:09.556Z,4.60
2023-01-11T09:22:14.697Z,4.20
2023-01-11T09:26:19.761Z,5.80
2023-01-11T09:30:25.242Z,3.30
2023-01-11T09:34:30.466Z,5.40
2023-01-11T09:38:38.055Z,5.20
2023-01-11T09:42:44.624Z,4.80
2023-01-11T09:46:56.431Z,4.40
2023-01-11T09:51:02.327Z,4.60
2023-01-11T09:59:19.335Z,3.90
2023-01-11T10:03:34.261Z,3.90
2023-01-11T10:07:46.006Z,3.80
2023-01-11T10:18:33.080Z,4.60
2023-01-11T10:21:06.878Z,4.90
2023-01-11T10:25:18.903Z,4.20
2023-01-11T10:29:59.589Z,4.00
2023-01-11T10:34:21.198Z,4.30
2023-01-11T10:38:54.120Z,5.10
2023-01-11T10:43:03.462Z,5.10
2023-01-11T10:47:13.033Z,4.30
2023-01-11T10:51:25.098Z,5.50
2023-01-11T10:59:52.640Z,5.50
2023-01-11T11:04:07.170Z,4.00
2023-01-11T11:08:15.006Z,4.50
2023-01-11T11:12:22.981Z,4.10
2023-01-11T11:16:36.412Z,4.90
2023-01-11T11:20:44.127Z,5.70
2023-01-11T11:24:50.529Z,5.00
2023-01-11T11:29:02.842Z,4.80
2023-01-11T11:33:09.538Z,5.20
2023-01-11T11:37:20.989Z,4.50
2023-01-11T11:41:26.245Z,5.80
2023-01-11T11:45:31.418Z,5.80
2023-01-11T11:49:38.472Z,6.00
2023-01-11T11:53:47.205Z,4.40
2023-01-11T11:57:52.560Z,4.80
2023-01-11T12:02:00.746Z,6.10
2023-01-11T12:06:07.500Z,4.70
2023-01-11T12:10:14.457Z,4.90
2023-01-11T12:14:22.604Z,4.70
2023-01-11T12:18:31.739Z,4.40
2023-01-11T12:22:36.843Z,4.90
2023-01-11T12:26:45.840Z,5.20
2023-01-11T12:30:56.898Z,4.80
2023-01-11T12:35:15.978Z,5.20
2023-01-11T12:39:25.440Z,5.50
2023-01-11T12:43:37.204Z,3.10
2023-01-11T12:47:52.579Z,6.20
2023-01-11T12:52:03.664Z,5.90
2023-01-11T12:56:25.215Z,5.50
2023-01-11T13:00:43.438Z,6.90
2023-01-11T13:04:53.203Z,5.30
2023-01-11T13:09:01.361Z,4.90
2023-01-11T13:13:10.310Z,5.80
2023-01-11T13:17:20.302Z,4.90
2023-01-11T13:21:30.266Z,6.50
2023-01-11T13:25:38.397Z,5.00
2023-01-11T13:29:45.112Z,4.80
2023-01-11T13:33:52.980Z,4.80
2023-01-11T13:37:59.751Z,4.00
2023-01-11T13:42:06.639Z,3.60
2023-01-11T13:46:15.760Z,3.40
2023-01-11T13:50:22.543Z,3.80
2023-01-11T13:54:32.625Z,5.00
2023-01-11T13:58:39.427Z,2.30
2023-01-11T14:02:47.215Z,1.80
2023-01-11T14:07:04.178Z,3.50
2023-01-11T14:11:11.946Z,4.50
2023-01-11T14:15:21.323Z,2.00
2023-01-11T14:19:29.534Z,3.40
2023-01-11T14:23:38.366Z,4.50
2023-01-11T14:27:48.601Z,4.00
2023-01-11T14:32:06.654Z,4.30
2023-01-11T14:36:29.820Z,3.90
2023-01-11T14:40:42.646Z,4.10
2023-01-11T14:44:58.146Z,5.10
2023-01-11T14:49:13.628Z,4.50
2023-01-11T14:53:25.344Z,3.70
2023-01-11T14:57:39.632Z,2.20
2023-01-11T15:06:31.891Z,5.10
2023-01-11T15:10:48.689Z,4.40
2023-01-11T15:14:55.858Z,4.20
2023-01-11T15:19:02.346Z,3.60
2023-01-11T15:23:07.488Z,3.90
2023-01-11T15:27:25.032Z,5.50
2023-01-11T15:31:33.988Z,2.20
2023-01-11T15:35:39.573Z,3.80
2023-01-11T15:39:47.439Z,5.80
2023-01-11T15:44:00.150Z,4.80
2023-01-11T15:48:24.553Z,6.00
2023-01-11T15:52:51.439Z,10.80
2023-01-11T15:57:11.845Z,8.50
2023-01-11T16:01:21.814Z,4.20
2023-01-11T16:05:28.962Z,3.50
2023-01-11T16:09:46.399Z,6.00
2023-01-11T16:14:07.046Z,4.60
2023-01-11T16:18:16.049Z,5.80
2023-01-11T16:22:25.284Z,6.20
2023-01-11T16:26:30.427Z,4.40
2023-01-11T16:30:35.716Z,5.40
2023-01-11T16:34:42.132Z,5.90
2023-01-11T16:38:51.082Z,5.50
2023-01-11T16:42:58.395Z,5.00
2023-01-11T16:47:14.332Z,4.60
2023-01-11T16:51:21.778Z,5.70
2023-01-11T16:55:29.673Z,4.70
2023-01-11T16:59:34.954Z,5.90
2023-01-11T17:03:48.889Z,6.20
2023-01-11T17:07:54.035Z,5.90
2023-01-11T17:11:59.083Z,5.20
2023-01-11T17:16:07.681Z,6.70
2023-01-11T17:20:18.189Z,6.40
2023-01-11T17:24:26.036Z,5.60
2023-01-11T17:28:31.235Z,6.80
2023-01-11T17:32:38.246Z,6.10
2023-01-11T17:36:44.669Z,5.80
2023-01-11T17:40:49.953Z,6.00
2023-01-11T17:45:14.652Z,5.00
2023-01-11T17:53:25.765Z,5.50
2023-01-11T17:57:31.837Z,6.00
2023-01-11T18:01:37.690Z,6.20
2023-01-11T18:09:47.784Z,5.90
2023-01-11T18:13:53.476Z,6.10
2023-01-11T18:17:58.897Z,5.00
2023-01-11T18:22:05.518Z,5.50
2023-01-11T18:26:28.123Z,6.80
2023-01-11T18:30:38.503Z,6.30
2023-01-11T18:34:44.380Z,5.60
2023-01-11T18:38:50.418Z,2.90
2023-01-11T18:46:59.174Z,4.40
2023-01-11T18:51:04.289Z,4.80
2023-01-11T18:55:11.997Z,4.30
2023-01-11T18:59:17.179Z,4.60
2023-01-11T19:03:22.425Z,5.20
2023-01-11T19:07:27.641Z,6.00
2023-01-11T19:11:32.814Z,6.30
2023-01-11T19:15:38.013Z,5.90
2023-01-11T19:19:43.516Z,5.50
2023-01-11T19:23:49.944Z,5.80
2023-01-11T19:27:55.155Z,6.10
2023-01-11T19:32:00.283Z,4.30
2023-01-11T19:36:07.643Z,6.30
2023-01-11T19:40:13.744Z,5.10
2023-01-11T19:44:19.201Z,6.00
2023-01-11T19:48:24.332Z,5.80
2023-01-11T19:52:29.597Z,5.80
2023-01-11T19:56:34.868Z,3.80
2023-01-11T20:00:40.432Z,5.10
2023-01-11T20:04:45.545Z,5.00
2023-01-11T20:08:51.426Z,4.90
2023-01-11T20:12:56.658Z,4.80
2023-01-11T20:17:01.906Z,5.50
2023-01-11T20:21:07.153Z,5.90
2023-01-11T20:25:13.121Z,4.70
2023-01-11T20:33:21.779Z,5.60
2023-01-11T20:37:26.936Z,6.70
2023-01-11T20:41:51.107Z,6.30
2023-01-11T20:45:59.272Z,6.60
2023-01-11T20:50:04.769Z,6.80
2023-01-11T20:54:10.552Z,7.70
2023-01-11T20:58:15.690Z,6.50
2023-01-11T21:02:20.829Z,6.90
2023-01-11T21:06:26.077Z,6.50
2023-01-11T21:10:31.228Z,7.30
2023-01-11T21:14:36.369Z,7.60
2023-01-11T21:18:43.852Z,7.10
2023-01-11T21:22:49.017Z,7.90
2023-01-11T21:26:54.197Z,7.60
2023-01-11T21:31:04.690Z,3.90
2023-01-11T21:35:11.315Z,6.20
2023-01-11T21:39:16.919Z,7.10
2023-01-11T21:43:22.134Z,6.90
2023-01-11T21:47:27.208Z,7.30
2023-01-11T21:51:32.326Z,7.20
2023-01-11T21:55:37.413Z,7.40
2023-01-11T21:59:42.599Z,7.20
2023-01-11T22:03:47.674Z,8.30
2023-01-11T22:07:52.889Z,7.70
2023-01-11T22:11:57.966Z,7.50
2023-01-11T22:16:04.047Z,8.00
2023-01-11T22:20:10.586Z,7.60
2023-01-11T22:24:17.154Z,7.80
2023-01-11T22:28:22.314Z,8.10
2023-01-11T22:32:27.409Z,8.20
2023-01-11T22:36:32.700Z,8.00
2023-01-11T22:40:37.759Z,7.30
2023-01-11T22:44:42.910Z,7.40
2023-01-11T22:48:48.823Z,7.60
2023-01-11T22:52:55.588Z,7.90
2023-01-11T22:57:00.713Z,7.70
2023-01-11T23:01:12.482Z,6.70
2023-01-11T23:05:17.650Z,8.40
2023-01-11T23:09:22.979Z,8.50
2023-01-11T23:13:45.533Z,9.10
2023-01-11T23:17:50.591Z,8.30
2023-01-11T23:21:55.963Z,7.30
2023-01-11T23:26:01.038Z,8.50
2023-01-11T23:30:07.068Z,8.00
2023-01-11T23:34:14.540Z,8.80
2023-01-11T23:38:19.596Z,8.00
2023-01-11T23:42:27.291Z,7.30
2023-01-11T23:46:49.843Z,8.20
2023-01-11T23:50:54.882Z,7.70
2023-01-11T23:55:00.644Z,7.70
2023-01-11T23:59:06.125Z,6.90
